Bei Facebook empfehlenBei Twitter postenGoogle plusPinterest

Das Wetter im Erzgebirge am 20.05.2016

Wetter und Klima am 20.05.2016 Holzhau im Erzgebirge (630m ü.NN)
Letzte gemessene Temperatur und Uhrzeit der Messung23:45:00 Uhr6.90 °C
Temperatur (Maximum / Höchstwert) und Uhrzeit der Messung14:30:00 Uhr19.90 °C
Temperatur (Minimum / Tiefstwert) und Uhrzeit der Messung03:00:004.90 °C
Errechneter Absolutwert der Temperaturschwankungen zwischen Tmin und Tmax des Tages15.00 K
Errechnete Tagesmitteltemperatur12.46354 °C
Gesamt - Niederschlag des Tages (in flüssiger Form)0.00 Liter / m²
Luftdruck (Maximum / Höchstwert) und Zeitpunkt der Messung23:15:00 Uhr1016.10 hPa
Luftdruck (Minimum / Tiefstwert) und Zeitpunkt der Messung01:15:00 Uhr1013.20 hPa
Errechneter Absolutwert der Luftdruckschwankungen des Tages2.90 hPa
Höchste gemessene Windgeschwindigkeit und Uhrzeit der Messung23:45:00 Uhr0.00 km/h
Errechnete Windhäufigkeit in Relation zu den Messwerten des Tages0.00000 %
Niedrigste Windkühle (Windchill) und Zeitpunkt der Messung03:00:00 Uhr4.90 °C
Taupunkt (Maximum / Höchstwert) und Uhrzeit der Messung09:15:00 Uhr11.70 °C
Taupunkt (Minimum / Tiefstwert) und Uhrzeit der Messung02:45:002.90 °C
Anzahl der automatisch eingelesenen Messwerte 96

Detaillierte Wetter- und Klima- Messwerte für den 20.05.2016 in Holzhau im Erzgebirge (630m ü.NN)
ZeitTemperaturLuftdruckRel. LuftfeuchteWindWindrichtungWindchillTaupunktNiederschlag l/m²
23:45:006.90 °C1016.00 hPa79.00 %3.50 °C 
23:30:007.10 °C1016.00 hPa79.00 %3.70 °C 
23:15:007.30 °C1016.10 hPa78.00 %3.70 °C 
23:00:007.60 °C1016.00 hPa78.00 %4.00 °C 
22:45:007.90 °C1016.10 hPa77.00 %4.10 °C 
22:30:008.10 °C1015.90 hPa76.00 %4.10 °C 
22:15:008.20 °C1016.00 hPa76.00 %4.20 °C 
22:00:008.40 °C1015.80 hPa75.00 %4.20 °C 
21:45:008.40 °C1015.80 hPa74.00 %4.00 °C 
21:30:008.60 °C1015.90 hPa73.00 %4.00 °C 
21:15:008.90 °C1015.90 hPa72.00 %4.10 °C 
21:00:009.20 °C1015.90 hPa70.00 %4.00 °C 
20:45:009.50 °C1015.80 hPa68.00 %3.90 °C 
20:30:009.90 °C1015.80 hPa66.00 %3.90 °C 
20:15:0010.80 °C1015.60 hPa64.00 %4.30 °C 
20:00:0011.60 °C1015.70 hPa62.00 %4.60 °C 
19:45:0012.50 °C1015.50 hPa60.00 %5.00 °C 
19:30:0013.30 °C1015.30 hPa58.00 %5.20 °C 
19:15:0014.30 °C1015.30 hPa56.00 %5.70 °C 
19:00:0015.20 °C1015.30 hPa55.00 %6.20 °C 
18:45:0016.10 °C1015.10 hPa53.00 %6.50 °C 
18:30:0016.40 °C1015.20 hPa54.00 %7.10 °C 
18:15:0016.10 °C1015.10 hPa53.00 %6.50 °C 
18:00:0016.60 °C1015.00 hPa51.00 %6.40 °C 
17:45:0017.30 °C1014.90 hPa50.00 %6.80 °C 
17:30:0018.00 °C1015.00 hPa50.00 %7.40 °C 
17:15:0018.10 °C1014.80 hPa49.00 %7.20 °C 
17:00:0017.60 °C1014.80 hPa52.00 %7.60 °C 
16:45:0017.60 °C1014.80 hPa51.00 %7.40 °C 
16:30:0018.30 °C1014.80 hPa49.00 %7.40 °C 
16:15:0018.90 °C1014.50 hPa49.00 %8.00 °C 
16:00:0018.90 °C1014.70 hPa49.00 %8.00 °C 
15:45:0019.30 °C1014.40 hPa49.00 %8.30 °C 
15:30:0018.90 °C1014.40 hPa50.00 %8.30 °C 
15:15:0018.80 °C1014.30 hPa48.00 %7.60 °C 
15:00:0019.20 °C1014.30 hPa49.00 %8.20 °C 
14:45:0019.50 °C1014.20 hPa48.00 %8.20 °C 
14:30:0019.90 °C1014.10 hPa49.00 %8.90 °C 
14:15:0019.40 °C1014.10 hPa49.00 %8.40 °C 
14:00:0019.70 °C1014.10 hPa49.00 %8.70 °C 
13:45:0019.80 °C1014.00 hPa50.00 %9.10 °C 
13:30:0019.50 °C1014.10 hPa50.00 %8.80 °C 
13:15:0019.10 °C1014.10 hPa51.00 %8.70 °C 
13:00:0019.30 °C1014.20 hPa54.00 %9.80 °C 
12:45:0019.10 °C1014.30 hPa55.00 %9.90 °C 
12:30:0019.00 °C1014.30 hPa56.00 %10.00 °C 
12:15:0018.10 °C1014.50 hPa58.00 %9.70 °C 
12:00:0017.40 °C1014.70 hPa60.00 %9.60 °C 
11:45:0017.80 °C1014.90 hPa58.00 %9.40 °C 
11:30:0018.30 °C1015.00 hPa59.00 %10.20 °C 
11:15:0018.10 °C1014.90 hPa61.00 %10.50 °C 
11:00:0017.80 °C1014.90 hPa63.00 %10.70 °C 
10:45:0017.30 °C1015.10 hPa64.00 %10.40 °C 
10:30:0016.90 °C1015.20 hPa67.00 %10.70 °C 
10:15:0016.00 °C1015.20 hPa69.00 %10.30 °C 
10:00:0016.30 °C1015.30 hPa67.00 %10.20 °C 
09:45:0016.30 °C1015.00 hPa73.00 %11.50 °C 
09:30:0015.10 °C1015.10 hPa72.00 %10.10 °C 
09:15:0016.10 °C1015.00 hPa75.00 %11.70 °C 
09:00:0014.60 °C1015.00 hPa79.00 %11.00 °C 
08:45:0014.30 °C1014.90 hPa79.00 %10.70 °C 
08:30:0013.80 °C1015.00 hPa81.00 %10.60 °C 
08:15:0013.30 °C1015.00 hPa82.00 %10.30 °C 
08:00:0013.30 °C1014.90 hPa83.00 %10.50 °C 
07:45:0013.20 °C1014.80 hPa85.00 %10.70 °C 
07:30:0012.60 °C1014.80 hPa87.00 %10.50 °C 
07:15:0012.10 °C1014.60 hPa88.00 %10.20 °C 
07:00:0011.60 °C1014.80 hPa89.00 %9.90 °C 
06:45:0010.90 °C1014.70 hPa90.00 %9.30 °C 
06:30:009.90 °C1014.60 hPa90.00 %8.30 °C 
06:15:008.90 °C1014.50 hPa90.00 %7.40 °C 
06:00:007.90 °C1014.40 hPa90.00 %6.40 °C 
05:45:007.30 °C1014.30 hPa90.00 %5.80 °C 
05:30:006.80 °C1014.40 hPa90.00 %5.30 °C 
05:15:006.40 °C1014.30 hPa89.00 %4.70 °C 
05:00:006.20 °C1014.20 hPa89.00 %4.50 °C 
04:45:006.00 °C1014.10 hPa89.00 %4.30 °C 
04:30:005.90 °C1014.10 hPa89.00 %4.20 °C 
04:15:005.80 °C1014.10 hPa89.00 %4.10 °C 
04:00:005.70 °C1014.00 hPa89.00 %4.00 °C 
03:45:005.60 °C1013.90 hPa89.00 %3.90 °C 
03:30:005.40 °C1013.80 hPa89.00 %3.70 °C 
03:15:005.10 °C1013.70 hPa88.00 %3.30 °C 
03:00:004.90 °C1013.50 hPa88.00 %3.10 °C 
02:45:004.90 °C1013.40 hPa87.00 %2.90 °C 
02:30:005.10 °C1013.30 hPa86.00 %3.00 °C 
02:15:005.30 °C1013.40 hPa86.00 %3.20 °C 
02:00:005.60 °C1013.30 hPa86.00 %3.40 °C 
01:45:005.70 °C1013.30 hPa86.00 %3.50 °C 
01:30:005.90 °C1013.30 hPa85.00 %3.60 °C 
01:15:006.40 °C1013.20 hPa85.00 %4.10 °C 
01:00:006.60 °C1013.40 hPa85.00 %4.30 °C 
00:45:006.80 °C1013.40 hPa84.00 %4.30 °C 
00:30:007.00 °C1013.20 hPa84.00 %4.50 °C 
00:15:006.90 °C1013.20 hPa83.00 %4.20 °C 
00:00:007.20 °C1013.20 hPa82.00 %4.30 °C 

Permanenter Link zu dieser Seite: Wetter im Erzgebirge am 20.05.2016
Performance-Info: Die Erstellung der Seite / Statistik(en) / Tabelle(n) erforderte 5 Datenbankserver-Abfrage(n) und dauerte 100 Millisekunden. (Dieser Messwert ist von der Gesamt-Auslastung des Servers abhängig.)
Erzgebirge - Wetter | Erzgebirge - Wetter (Mobilgeräte) | Komplette Klimadatenbank